createdAt,value
2022-12-27T00:01:57.469Z,6.10
2022-12-27T00:04:24.872Z,6.21
2022-12-27T00:06:52.226Z,6.04
2022-12-27T00:12:11.795Z,6.15
2022-12-27T00:14:40.967Z,6.33
2022-12-27T00:17:08.379Z,6.20
2022-12-27T00:19:36.035Z,6.17
2022-12-27T00:24:56.353Z,6.06
2022-12-27T00:30:16.658Z,6.05
2022-12-27T00:32:44.017Z,6.31
2022-12-27T00:35:11.731Z,6.48
2022-12-27T00:37:39.086Z,6.03
2022-12-27T00:40:07.360Z,6.00
2022-12-27T00:42:34.973Z,6.26
2022-12-27T00:45:02.352Z,5.92
2022-12-27T00:47:31.016Z,6.13
2022-12-27T00:49:59.786Z,6.12
2022-12-27T00:52:27.164Z,5.95
2022-12-27T00:54:58.525Z,5.92
2022-12-27T00:57:25.919Z,5.98
2022-12-27T00:59:53.421Z,6.00
2022-12-27T01:02:20.807Z,6.07
2022-12-27T01:04:51.498Z,6.03
2022-12-27T01:07:18.864Z,6.17
2022-12-27T01:12:37.851Z,5.92
2022-12-27T01:15:06.383Z,5.91
2022-12-27T01:17:34.121Z,5.76
2022-12-27T01:20:02.977Z,6.03
2022-12-27T01:22:30.735Z,5.90
2022-12-27T01:24:58.101Z,6.02
2022-12-27T01:27:25.503Z,6.22
2022-12-27T01:29:52.867Z,6.14
2022-12-27T01:32:20.344Z,6.26
2022-12-27T01:34:48.038Z,6.02
2022-12-27T01:37:16.797Z,6.18
2022-12-27T01:39:44.251Z,6.13
2022-12-27T01:42:34.196Z,6.01
2022-12-27T01:45:02.286Z,6.15
2022-12-27T01:50:32.563Z,6.19
2022-12-27T01:53:06.527Z,6.13
2022-12-27T01:58:35.404Z,6.10
2022-12-27T02:01:04.466Z,5.96
2022-12-27T02:03:34.774Z,5.81
2022-12-27T02:06:04.964Z,6.05
2022-12-27T02:08:44.495Z,6.02
2022-12-27T02:11:14.212Z,5.96
2022-12-27T02:13:45.255Z,5.83
2022-12-27T02:16:15.233Z,6.12
2022-12-27T02:18:43.243Z,6.01
2022-12-27T02:24:47.450Z,5.96
2022-12-27T02:27:27.485Z,5.91
2022-12-27T02:30:02.816Z,5.84
2022-12-27T02:32:34.475Z,5.93
2022-12-27T02:35:09.401Z,5.80
2022-12-27T02:37:47.513Z,5.75
2022-12-27T02:40:35.275Z,5.73
2022-12-27T02:43:21.180Z,5.87
2022-12-27T02:46:17.151Z,5.63
2022-12-27T02:49:14.470Z,5.52
2022-12-27T02:52:13.779Z,5.84
2022-12-27T02:55:00.862Z,5.59
2022-12-27T02:57:35.397Z,5.58
2022-12-27T03:00:28.423Z,5.56
2022-12-27T03:03:23.589Z,5.46
2022-12-27T03:06:27.394Z,5.61
2022-12-27T03:08:59.063Z,5.67
2022-12-27T03:11:48.497Z,5.60
2022-12-27T03:14:39.456Z,5.43
2022-12-27T03:20:29.203Z,5.19
2022-12-27T03:23:17.019Z,5.26
2022-12-27T03:25:45.405Z,5.07
2022-12-27T03:28:36.689Z,5.15
2022-12-27T03:31:28.475Z,5.27
2022-12-27T03:34:25.251Z,5.27
2022-12-27T03:37:17.530Z,5.12
2022-12-27T03:39:51.036Z,5.28
2022-12-27T03:42:42.136Z,5.09
2022-12-27T03:45:10.949Z,5.01
2022-12-27T03:47:43.673Z,4.94
2022-12-27T03:50:16.986Z,4.88
2022-12-27T03:52:49.974Z,4.99
2022-12-27T03:55:18.280Z,4.68
2022-12-27T03:57:47.530Z,4.84
2022-12-27T04:00:15.547Z,4.79
2022-12-27T04:02:43.051Z,4.65
2022-12-27T04:05:10.622Z,4.72
2022-12-27T04:07:38.072Z,5.00
2022-12-27T04:10:25.491Z,4.85
2022-12-27T04:13:10.377Z,4.84
2022-12-27T04:15:55.607Z,4.99
2022-12-27T04:18:40.308Z,4.85
2022-12-27T04:21:25.045Z,4.89
2022-12-27T04:24:09.734Z,4.86
2022-12-27T04:26:56.414Z,4.72
2022-12-27T04:29:41.150Z,4.79
2022-12-27T04:32:26.079Z,4.70
2022-12-27T04:34:53.437Z,4.62
2022-12-27T04:37:24.539Z,4.46
2022-12-27T04:40:05.905Z,4.50
2022-12-27T04:46:01.152Z,4.44
2022-12-27T04:48:48.455Z,4.27
2022-12-27T04:51:33.633Z,4.46
2022-12-27T04:54:18.450Z,4.09
2022-12-27T04:56:45.823Z,4.29
2022-12-27T04:59:32.411Z,4.12
2022-12-27T05:02:05.454Z,3.99
2022-12-27T05:04:35.639Z,4.22
2022-12-27T05:10:33.159Z,4.23
2022-12-27T05:16:10.824Z,4.41
2022-12-27T05:21:29.450Z,4.31
2022-12-27T05:24:14.643Z,4.53
2022-12-27T05:26:42.037Z,4.45
2022-12-27T05:29:09.807Z,4.39
2022-12-27T05:31:38.527Z,4.59
2022-12-27T05:34:09.974Z,4.53
2022-12-27T05:36:37.322Z,4.59
2022-12-27T05:39:04.909Z,4.55
2022-12-27T05:41:32.549Z,4.71
2022-12-27T05:44:04.965Z,4.73
2022-12-27T05:46:35.509Z,4.54
2022-12-27T05:49:04.715Z,4.70
2022-12-27T05:54:24.674Z,4.97
2022-12-27T05:56:52.037Z,4.80
2022-12-27T05:59:19.433Z,4.88
2022-12-27T06:01:48.537Z,5.01
2022-12-27T06:04:17.279Z,4.80
2022-12-27T06:06:44.649Z,5.10
2022-12-27T06:09:12.440Z,5.08
2022-12-27T06:11:41.369Z,5.00
2022-12-27T06:14:08.775Z,5.02
2022-12-27T06:16:36.227Z,4.92
2022-12-27T06:19:03.703Z,5.05
2022-12-27T06:21:34.636Z,4.94
2022-12-27T06:24:02.009Z,4.96
2022-12-27T06:26:31.040Z,4.82
2022-12-27T06:28:59.388Z,4.98
2022-12-27T06:31:28.320Z,5.08
2022-12-27T06:33:58.472Z,4.68
2022-12-27T06:36:31.368Z,4.67
2022-12-27T06:39:01.306Z,4.69
2022-12-27T06:41:28.994Z,4.54
2022-12-27T06:43:58.570Z,4.45
2022-12-27T06:46:26.127Z,4.42
2022-12-27T06:48:53.947Z,4.34
2022-12-27T06:54:14.781Z,4.16
2022-12-27T06:56:42.120Z,4.28
2022-12-27T06:59:11.372Z,4.39
2022-12-27T07:01:38.951Z,4.29
2022-12-27T07:04:08.518Z,4.29
2022-12-27T07:06:37.989Z,4.26
2022-12-27T07:09:06.004Z,4.38
2022-12-27T07:11:35.261Z,4.35
2022-12-27T07:14:03.487Z,4.39
2022-12-27T07:16:33.642Z,4.35
2022-12-27T07:19:01.117Z,4.26
2022-12-27T07:21:30.127Z,4.43
2022-12-27T07:23:58.406Z,4.41
2022-12-27T07:26:28.546Z,4.35
2022-12-27T07:29:02.364Z,4.21
2022-12-27T07:31:31.449Z,4.51
2022-12-27T07:36:52.351Z,4.58
2022-12-27T07:39:19.781Z,4.48
2022-12-27T07:41:47.136Z,4.43
2022-12-27T07:44:15.965Z,4.62
2022-12-27T07:46:43.368Z,4.77
2022-12-27T07:49:17.877Z,4.56
2022-12-27T07:51:45.578Z,4.59
2022-12-27T07:54:12.934Z,4.74
2022-12-27T07:56:40.273Z,5.00
2022-12-27T07:59:12.539Z,4.81
2022-12-27T08:04:49.444Z,5.02
2022-12-27T08:07:19.290Z,5.25
2022-12-27T08:09:48.708Z,5.06
2022-12-27T08:12:16.902Z,5.25
2022-12-27T08:14:45.522Z,5.27
2022-12-27T08:20:14.329Z,5.44
2022-12-27T08:22:41.752Z,5.63
2022-12-27T08:25:10.148Z,5.80
2022-12-27T08:27:37.553Z,5.94
2022-12-27T08:30:07.505Z,5.96
2022-12-27T08:32:36.466Z,5.84
2022-12-27T08:35:25.359Z,5.68
2022-12-27T08:37:54.379Z,5.72
2022-12-27T08:40:21.738Z,5.65
2022-12-27T08:42:51.304Z,5.68
2022-12-27T08:45:18.669Z,5.82
2022-12-27T08:47:47.460Z,5.71
2022-12-27T08:50:14.863Z,5.96
2022-12-27T08:52:42.219Z,5.76
2022-12-27T08:55:10.125Z,5.64
2022-12-27T09:00:29.915Z,5.70
2022-12-27T09:03:00.009Z,5.80
2022-12-27T09:08:20.561Z,5.82
2022-12-27T09:10:47.928Z,5.64
2022-12-27T09:13:15.285Z,5.88
2022-12-27T09:15:44.283Z,5.68
2022-12-27T09:18:13.254Z,5.65
2022-12-27T09:20:40.670Z,5.78
2022-12-27T09:23:08.023Z,6.01
2022-12-27T09:25:35.966Z,6.12
2022-12-27T09:28:03.241Z,6.38
2022-12-27T09:30:30.632Z,6.63
2022-12-27T09:32:58.890Z,6.91
2022-12-27T09:35:35.290Z,7.19
2022-12-27T09:38:05.703Z,7.25
2022-12-27T09:40:36.310Z,7.00
2022-12-27T09:43:19.551Z,6.77
2022-12-27T09:45:56.498Z,6.86
2022-12-27T09:48:33.584Z,7.01
2022-12-27T09:54:03.124Z,7.40
2022-12-27T09:56:54.476Z,7.43
2022-12-27T09:59:27.928Z,7.35
2022-12-27T10:01:55.375Z,7.66
2022-12-27T10:07:22.347Z,7.53
2022-12-27T10:09:59.670Z,7.35
2022-12-27T10:12:58.405Z,7.33
2022-12-27T10:15:32.742Z,7.19
2022-12-27T10:18:15.237Z,7.56
2022-12-27T10:20:55.559Z,7.55
2022-12-27T10:26:21.671Z,7.63
2022-12-27T10:28:57.151Z,7.84
2022-12-27T10:34:27.467Z,7.63
2022-12-27T10:36:54.866Z,7.64
2022-12-27T10:39:31.269Z,8.12
2022-12-27T10:42:08.207Z,7.95
2022-12-27T10:44:35.753Z,8.25
2022-12-27T10:47:03.234Z,8.09
2022-12-27T10:49:32.581Z,8.04
2022-12-27T10:52:09.392Z,7.82
2022-12-27T10:54:51.076Z,7.89
2022-12-27T10:57:26.839Z,7.89
2022-12-27T11:00:16.031Z,8.14
2022-12-27T11:05:41.943Z,8.43
2022-12-27T11:08:20.570Z,8.02
2022-12-27T11:10:49.250Z,8.18
2022-12-27T11:13:19.893Z,8.21
2022-12-27T11:15:59.011Z,8.31
2022-12-27T11:18:27.208Z,8.23
2022-12-27T11:20:59.260Z,8.08
2022-12-27T11:23:43.090Z,8.48
2022-12-27T11:26:20.934Z,8.67
2022-12-27T11:28:52.949Z,8.99
2022-12-27T11:34:26.563Z,8.66
2022-12-27T11:36:55.895Z,9.09
2022-12-27T11:39:42.221Z,9.27
2022-12-27T11:42:18.840Z,9.27
2022-12-27T11:44:51.150Z,9.75
2022-12-27T11:47:28.977Z,9.77
2022-12-27T11:50:05.244Z,9.93
2022-12-27T11:52:57.332Z,9.72
2022-12-27T11:55:39.920Z,9.09
2022-12-27T11:58:49.723Z,8.73
2022-12-27T12:01:39.324Z,8.47
2022-12-27T12:04:46.970Z,8.32
2022-12-27T12:07:30.297Z,8.31
2022-12-27T12:10:12.098Z,8.22
2022-12-27T12:12:56.029Z,7.98
2022-12-27T12:15:59.467Z,8.10
2022-12-27T12:21:54.631Z,8.00
2022-12-27T12:25:03.995Z,8.05
2022-12-27T12:27:46.718Z,8.06
2022-12-27T12:30:36.114Z,7.92
2022-12-27T12:33:22.005Z,7.90
2022-12-27T12:36:04.513Z,7.88
2022-12-27T12:45:24.933Z,7.91
2022-12-27T12:51:29.649Z,7.79
2022-12-27T12:57:17.850Z,7.65
2022-12-27T13:03:37.758Z,7.86
2022-12-27T13:06:20.227Z,7.78
2022-12-27T13:08:57.003Z,7.63
2022-12-27T13:14:55.962Z,7.61
2022-12-27T13:17:33.697Z,7.83
2022-12-27T13:23:23.456Z,7.70
2022-12-27T13:29:06.289Z,7.76
2022-12-27T13:31:44.179Z,7.70
2022-12-27T13:34:21.834Z,7.84
2022-12-27T13:37:12.934Z,7.69
2022-12-27T13:39:56.035Z,7.89
2022-12-27T13:45:50.068Z,7.79
2022-12-27T13:48:37.142Z,7.78
2022-12-27T13:51:17.322Z,7.95
2022-12-27T13:54:13.560Z,7.85
2022-12-27T14:00:00.024Z,7.89
2022-12-27T14:02:51.543Z,7.83
2022-12-27T14:06:00.852Z,7.79
2022-12-27T14:08:41.482Z,7.43
2022-12-27T14:11:26.172Z,7.51
2022-12-27T14:13:56.872Z,7.53
2022-12-27T14:16:35.161Z,7.43
2022-12-27T14:19:39.364Z,7.29
2022-12-27T14:22:36.297Z,7.16
2022-12-27T14:25:54.986Z,7.23
2022-12-27T14:28:54.756Z,7.40
2022-12-27T14:31:47.460Z,7.35
2022-12-27T14:34:44.395Z,7.51
2022-12-27T14:37:33.059Z,7.61
2022-12-27T14:40:35.801Z,7.37
2022-12-27T14:43:35.694Z,7.20
2022-12-27T14:46:24.349Z,7.18
2022-12-27T14:49:26.957Z,7.19
2022-12-27T14:52:17.711Z,7.33
2022-12-27T14:55:14.508Z,7.13
2022-12-27T14:57:53.376Z,7.22
2022-12-27T15:00:23.680Z,7.12
2022-12-27T15:03:05.606Z,7.08
2022-12-27T15:05:46.297Z,7.17
2022-12-27T15:08:31.906Z,7.26
2022-12-27T15:11:08.525Z,7.11
2022-12-27T15:13:49.744Z,7.08
2022-12-27T15:16:26.940Z,7.09
2022-12-27T15:19:12.589Z,7.04
2022-12-27T15:22:01.960Z,6.90
2022-12-27T15:24:41.596Z,6.92
2022-12-27T15:27:20.082Z,6.76
2022-12-27T15:30:03.582Z,6.52
2022-12-27T15:32:41.186Z,6.53
2022-12-27T15:35:36.421Z,6.73
2022-12-27T15:38:10.279Z,6.61
2022-12-27T15:40:47.673Z,6.64
2022-12-27T15:43:38.141Z,6.56
2022-12-27T15:46:19.252Z,6.15
2022-12-27T15:49:07.210Z,6.14
2022-12-27T15:51:42.058Z,6.17
2022-12-27T15:54:46.480Z,6.18
2022-12-27T15:57:34.464Z,6.10
2022-12-27T16:00:16.481Z,6.13
2022-12-27T16:02:56.453Z,6.18
2022-12-27T16:05:48.567Z,5.98
2022-12-27T16:08:42.087Z,5.71
2022-12-27T16:11:13.307Z,5.78
2022-12-27T16:13:47.043Z,5.69
2022-12-27T16:16:56.997Z,5.61
2022-12-27T16:25:38.059Z,5.32
2022-12-27T16:28:10.085Z,5.49
2022-12-27T16:30:45.703Z,5.34
2022-12-27T16:33:28.678Z,5.22
2022-12-27T16:36:13.353Z,5.32
2022-12-27T16:38:47.306Z,5.32
2022-12-27T16:41:20.643Z,5.20
2022-12-27T16:44:04.377Z,5.23
2022-12-27T16:46:49.344Z,5.31
2022-12-27T16:49:47.226Z,5.08
2022-12-27T16:52:33.874Z,5.06
2022-12-27T16:55:17.519Z,5.03
2022-12-27T16:57:47.169Z,4.98
2022-12-27T17:00:43.248Z,4.81
2022-12-27T17:03:39.688Z,4.90
2022-12-27T17:06:40.571Z,4.61
2022-12-27T17:09:41.624Z,4.76
2022-12-27T17:12:18.829Z,4.74
2022-12-27T17:14:47.599Z,4.77
2022-12-27T17:17:23.919Z,4.74
2022-12-27T17:20:01.007Z,4.77
2022-12-27T17:22:34.507Z,4.81
2022-12-27T17:25:04.020Z,4.81
2022-12-27T17:27:57.878Z,4.80
2022-12-27T17:30:48.157Z,4.57
2022-12-27T17:33:30.992Z,4.76
2022-12-27T17:36:23.231Z,4.75
2022-12-27T17:39:04.267Z,4.66
2022-12-27T17:42:19.882Z,4.60
2022-12-27T17:45:03.571Z,4.72
2022-12-27T17:47:45.550Z,4.67
2022-12-27T17:50:17.627Z,4.56
2022-12-27T17:53:20.578Z,4.69
2022-12-27T17:56:18.958Z,4.73
2022-12-27T17:58:46.334Z,4.76
2022-12-27T18:01:14.578Z,4.81
2022-12-27T18:03:45.516Z,4.86
2022-12-27T18:06:19.749Z,4.93
2022-12-27T18:08:49.317Z,4.81
2022-12-27T18:11:23.502Z,4.88
2022-12-27T18:13:58.874Z,5.00
2022-12-27T18:16:33.941Z,5.10
2022-12-27T18:19:02.998Z,4.93
2022-12-27T18:21:32.397Z,5.00
2022-12-27T18:23:59.941Z,5.16
2022-12-27T18:26:37.546Z,5.07
2022-12-27T18:29:06.155Z,5.03
2022-12-27T18:31:39.386Z,5.08
2022-12-27T18:34:09.119Z,4.96
2022-12-27T18:36:41.938Z,5.05
2022-12-27T18:39:19.853Z,5.11
2022-12-27T18:41:48.260Z,5.30
2022-12-27T18:44:24.803Z,5.20
2022-12-27T18:46:57.268Z,5.13
2022-12-27T18:49:26.899Z,4.98
2022-12-27T18:51:56.097Z,5.13
2022-12-27T18:54:33.449Z,5.03
2022-12-27T18:57:03.038Z,5.09
2022-12-27T18:59:32.482Z,5.14
2022-12-27T19:02:02.943Z,5.23
2022-12-27T19:04:32.094Z,5.18
2022-12-27T19:07:10.069Z,5.12
2022-12-27T19:09:39.000Z,5.15
2022-12-27T19:12:10.147Z,5.31
2022-12-27T19:14:43.440Z,5.23
2022-12-27T19:17:17.815Z,5.23
2022-12-27T19:19:48.101Z,5.09
2022-12-27T19:22:36.602Z,5.19
2022-12-27T19:25:08.071Z,5.26
2022-12-27T19:27:35.571Z,5.29
2022-12-27T19:30:02.973Z,5.21
2022-12-27T19:32:33.637Z,5.25
2022-12-27T19:35:03.280Z,5.35
2022-12-27T19:37:33.325Z,5.43
2022-12-27T19:40:00.870Z,5.42
2022-12-27T19:42:31.155Z,5.38
2022-12-27T19:44:58.769Z,5.39
2022-12-27T19:47:27.084Z,5.38
2022-12-27T19:49:54.464Z,5.40
2022-12-27T19:52:23.679Z,5.32
2022-12-27T19:54:57.489Z,5.10
2022-12-27T19:57:24.847Z,5.16
2022-12-27T19:59:52.684Z,4.99
2022-12-27T20:02:21.257Z,5.02
2022-12-27T20:04:48.737Z,5.04
2022-12-27T20:07:21.504Z,5.05
2022-12-27T20:09:49.300Z,5.04
2022-12-27T20:12:18.252Z,4.97
2022-12-27T20:14:47.216Z,5.01
2022-12-27T20:17:14.670Z,4.98
2022-12-27T20:19:42.067Z,4.86
2022-12-27T20:22:09.445Z,4.85
2022-12-27T20:24:37.792Z,4.86
2022-12-27T20:27:05.396Z,4.86
2022-12-27T20:29:34.149Z,4.64
2022-12-27T20:32:01.938Z,4.51
2022-12-27T20:34:29.399Z,4.50
2022-12-27T20:36:58.147Z,4.17
2022-12-27T20:39:25.855Z,4.21
2022-12-27T20:41:53.283Z,4.15
2022-12-27T20:44:20.649Z,3.95
2022-12-27T20:46:50.594Z,4.13
2022-12-27T20:49:17.967Z,3.97
2022-12-27T20:51:45.482Z,3.96
2022-12-27T20:54:13.678Z,3.83
2022-12-27T20:56:41.065Z,3.76
2022-12-27T20:59:08.435Z,3.66
2022-12-27T21:01:36.049Z,3.81
2022-12-27T21:04:05.827Z,3.80
2022-12-27T21:06:33.269Z,3.50
2022-12-27T21:09:00.643Z,3.58
2022-12-27T21:11:30.875Z,3.66
2022-12-27T21:13:58.758Z,3.58
2022-12-27T21:16:28.797Z,3.67
2022-12-27T21:18:57.286Z,3.66
2022-12-27T21:21:28.704Z,3.75
2022-12-27T21:23:56.739Z,3.74
2022-12-27T21:26:26.573Z,3.79
2022-12-27T21:28:54.833Z,3.90
2022-12-27T21:31:23.427Z,4.04
2022-12-27T21:33:51.542Z,3.91
2022-12-27T21:36:20.323Z,3.93
2022-12-27T21:38:50.063Z,3.92
2022-12-27T21:41:19.526Z,4.00
2022-12-27T21:43:48.843Z,4.09
2022-12-27T21:46:18.754Z,4.03
2022-12-27T21:48:46.799Z,3.95
2022-12-27T21:51:14.887Z,3.98
2022-12-27T21:53:43.080Z,3.98
2022-12-27T21:56:12.826Z,4.07
2022-12-27T21:58:47.625Z,4.06
2022-12-27T22:01:17.689Z,4.00
2022-12-27T22:03:48.412Z,4.12
2022-12-27T22:06:18.977Z,4.05
2022-12-27T22:08:48.817Z,3.93
2022-12-27T22:11:19.717Z,3.92
2022-12-27T22:13:47.193Z,3.94
2022-12-27T22:16:16.381Z,3.98
2022-12-27T22:18:45.068Z,4.03
2022-12-27T22:21:14.800Z,4.00
2022-12-27T22:23:45.255Z,4.07
2022-12-27T22:26:15.454Z,4.10
2022-12-27T22:28:44.415Z,4.28
2022-12-27T22:31:13.776Z,4.05
2022-12-27T22:33:41.244Z,4.08
2022-12-27T22:36:11.639Z,3.96
2022-12-27T22:38:40.615Z,3.96
2022-12-27T22:41:11.506Z,3.80
2022-12-27T22:43:39.120Z,3.80
2022-12-27T22:46:09.029Z,3.83
2022-12-27T22:48:37.099Z,3.66
2022-12-27T22:51:08.506Z,3.75
2022-12-27T22:53:36.061Z,3.69
2022-12-27T22:56:03.516Z,3.56
2022-12-27T22:58:32.207Z,3.53
2022-12-27T23:01:00.546Z,3.50
2022-12-27T23:03:29.268Z,3.61
2022-12-27T23:05:58.237Z,3.52
2022-12-27T23:08:25.675Z,3.58
2022-12-27T23:10:53.339Z,3.55
2022-12-27T23:13:22.904Z,3.68
2022-12-27T23:15:57.278Z,3.69
2022-12-27T23:18:24.746Z,3.62
2022-12-27T23:21:21.836Z,3.62
2022-12-27T23:23:41.573Z,3.51
2022-12-27T23:26:13.777Z,3.71
2022-12-27T23:28:43.770Z,3.73
2022-12-27T23:31:12.380Z,4.05
2022-12-27T23:33:40.467Z,4.03
2022-12-27T23:36:09.715Z,4.08
2022-12-27T23:38:37.239Z,3.96
2022-12-27T23:41:06.147Z,3.85
2022-12-27T23:43:52.180Z,3.86
2022-12-27T23:46:23.587Z,3.66
2022-12-27T23:48:52.026Z,3.67
2022-12-27T23:51:22.122Z,3.83
2022-12-27T23:53:49.707Z,4.00
2022-12-27T23:56:19.103Z,3.94
2022-12-27T23:58:47.537Z,3.96
